createdAt,value
2023-04-20T00:00:00.688Z,64.70
2023-04-20T00:01:00.337Z,64.79
2023-04-20T00:02:00.418Z,64.79
2023-04-20T00:03:00.433Z,64.79
2023-04-20T00:04:00.436Z,64.79
2023-04-20T00:05:00.409Z,64.79
2023-04-20T00:06:00.402Z,64.85
2023-04-20T00:07:00.476Z,64.85
2023-04-20T00:08:00.344Z,64.85
2023-04-20T00:09:00.380Z,64.85
2023-04-20T00:10:00.775Z,64.85
2023-04-20T00:11:00.365Z,65.32
2023-04-20T00:12:00.494Z,65.32
2023-04-20T00:13:00.349Z,65.32
2023-04-20T00:14:00.331Z,65.32
2023-04-20T00:15:00.368Z,65.32
2023-04-20T00:16:00.380Z,65.61
2023-04-20T00:17:00.463Z,65.61
2023-04-20T00:18:00.501Z,65.61
2023-04-20T00:19:00.459Z,65.61
2023-04-20T00:20:00.396Z,65.61
2023-04-20T00:21:00.352Z,65.85
2023-04-20T00:22:00.378Z,65.85
2023-04-20T00:23:00.432Z,65.85
2023-04-20T00:24:00.416Z,65.85
2023-04-20T00:25:00.388Z,65.85
2023-04-20T00:26:00.399Z,65.86
2023-04-20T00:27:00.360Z,65.86
2023-04-20T00:28:00.342Z,65.86
2023-04-20T00:29:00.360Z,65.86
2023-04-20T00:30:00.453Z,65.86
2023-04-20T00:31:00.374Z,66.00
2023-04-20T00:32:00.332Z,66.00
2023-04-20T00:33:00.436Z,66.00
2023-04-20T00:34:00.345Z,66.00
2023-04-20T00:35:00.352Z,66.00
2023-04-20T00:36:00.706Z,66.12
2023-04-20T00:37:00.470Z,66.12
2023-04-20T00:38:00.391Z,66.12
2023-04-20T00:39:00.391Z,66.12
2023-04-20T00:40:00.329Z,66.12
2023-04-20T00:41:00.436Z,66.80
2023-04-20T00:42:04.137Z,66.80
2023-04-20T00:43:10.250Z,66.80
2023-04-20T00:44:00.333Z,66.80
2023-04-20T00:45:00.391Z,66.80
2023-04-20T00:46:00.365Z,66.79
2023-04-20T00:47:00.704Z,66.79
2023-04-20T00:48:00.408Z,66.79
2023-04-20T00:49:00.447Z,66.79
2023-04-20T00:50:00.472Z,66.79
2023-04-20T00:51:00.995Z,67.28
2023-04-20T00:52:00.366Z,67.28
2023-04-20T00:53:01.261Z,67.28
2023-04-20T00:54:00.441Z,67.28
2023-04-20T00:55:00.922Z,67.28
2023-04-20T00:56:00.328Z,67.27
2023-04-20T00:57:00.356Z,67.27
2023-04-20T00:58:00.677Z,67.27
2023-04-20T00:59:01.007Z,67.27
2023-04-20T01:00:00.421Z,67.27
2023-04-20T01:01:00.352Z,67.38
2023-04-20T01:02:00.564Z,67.38
2023-04-20T01:03:00.942Z,67.38
2023-04-20T01:04:00.592Z,67.38
2023-04-20T01:05:00.387Z,67.38
2023-04-20T01:06:00.857Z,67.47
2023-04-20T01:07:00.750Z,67.47
2023-04-20T01:08:00.366Z,67.47
2023-04-20T01:09:00.405Z,67.47
2023-04-20T01:10:00.362Z,67.47
2023-04-20T01:11:00.339Z,67.57
2023-04-20T01:12:00.374Z,67.57
2023-04-20T01:13:00.347Z,67.57
2023-04-20T01:14:00.405Z,67.57
2023-04-20T01:15:01.451Z,67.57
2023-04-20T01:16:00.594Z,67.72
2023-04-20T01:17:00.359Z,67.72
2023-04-20T01:18:00.404Z,67.72
2023-04-20T01:19:00.339Z,67.72
2023-04-20T01:20:00.348Z,67.72
2023-04-20T01:21:00.343Z,68.17
2023-04-20T01:22:00.333Z,68.17
2023-04-20T01:23:00.446Z,68.17
2023-04-20T01:24:00.349Z,68.17
2023-04-20T01:25:00.497Z,68.17
2023-04-20T01:26:04.354Z,68.33
2023-04-20T01:27:00.338Z,68.33
2023-04-20T01:28:00.330Z,68.33
2023-04-20T01:29:00.345Z,68.33
2023-04-20T01:30:00.327Z,68.33
2023-04-20T01:31:01.659Z,68.57
2023-04-20T01:32:00.341Z,68.57
2023-04-20T01:33:00.382Z,68.57
2023-04-20T01:34:00.338Z,68.57
2023-04-20T01:35:00.485Z,68.57
2023-04-20T01:36:00.483Z,68.73
2023-04-20T01:37:00.367Z,68.73
2023-04-20T01:38:00.353Z,68.73
2023-04-20T01:39:00.376Z,68.73
2023-04-20T01:40:00.445Z,68.73
2023-04-20T01:41:01.798Z,69.04
2023-04-20T01:42:00.360Z,69.04
2023-04-20T01:43:00.358Z,69.04
2023-04-20T01:44:00.346Z,69.04
2023-04-20T01:45:00.411Z,69.04
2023-04-20T01:46:00.834Z,69.05
2023-04-20T01:47:00.457Z,69.05
2023-04-20T01:48:01.083Z,69.05
2023-04-20T01:49:00.344Z,69.05
2023-04-20T01:50:00.370Z,69.05
2023-04-20T01:51:00.391Z,69.45
2023-04-20T01:52:00.384Z,69.45
2023-04-20T01:53:00.870Z,69.45
2023-04-20T01:54:00.823Z,69.45
2023-04-20T01:55:00.353Z,69.45
2023-04-20T01:56:00.353Z,69.83
2023-04-20T01:57:00.340Z,69.83
2023-04-20T01:58:00.437Z,69.83
2023-04-20T01:59:00.340Z,69.83
2023-04-20T02:00:00.373Z,69.83
2023-04-20T02:01:00.751Z,70.37
2023-04-20T02:02:00.408Z,70.37
2023-04-20T02:03:00.462Z,70.37
2023-04-20T02:04:00.513Z,70.37
2023-04-20T02:05:00.347Z,70.37
2023-04-20T02:06:00.363Z,71.15
2023-04-20T02:07:00.374Z,71.15
2023-04-20T02:08:00.344Z,71.15
2023-04-20T02:09:00.361Z,71.15
2023-04-20T02:10:00.355Z,71.15
2023-04-20T02:11:00.386Z,71.17
2023-04-20T02:12:00.367Z,71.17
2023-04-20T02:13:00.347Z,71.17
2023-04-20T02:14:00.374Z,71.17
2023-04-20T02:15:00.383Z,71.17
2023-04-20T02:16:00.333Z,71.82
2023-04-20T02:17:00.831Z,71.82
2023-04-20T02:18:00.480Z,71.82
2023-04-20T02:19:00.354Z,71.82
2023-04-20T02:20:00.447Z,71.82
2023-04-20T02:21:00.372Z,72.29
2023-04-20T02:22:00.341Z,72.29
2023-04-20T02:23:00.350Z,72.29
2023-04-20T02:24:00.357Z,72.29
2023-04-20T02:25:00.782Z,72.29
2023-04-20T02:26:00.386Z,72.34
2023-04-20T02:27:00.338Z,72.34
2023-04-20T02:28:00.434Z,72.34
2023-04-20T02:29:00.362Z,72.34
2023-04-20T02:30:00.366Z,72.34
2023-04-20T02:31:00.401Z,72.61
2023-04-20T02:32:00.361Z,72.61
2023-04-20T02:33:00.463Z,72.61
2023-04-20T02:34:00.351Z,72.61
2023-04-20T02:35:00.338Z,72.61
2023-04-20T02:36:00.342Z,72.78
2023-04-20T02:37:00.389Z,72.78
2023-04-20T02:38:00.352Z,72.78
2023-04-20T02:39:00.327Z,72.78
2023-04-20T02:40:02.506Z,72.78
2023-04-20T02:41:00.354Z,72.70
2023-04-20T02:42:00.415Z,72.70
2023-04-20T02:43:00.339Z,72.70
2023-04-20T02:44:00.413Z,72.70
2023-04-20T02:45:00.851Z,72.70
2023-04-20T02:46:00.491Z,72.70
2023-04-20T02:47:00.358Z,72.70
2023-04-20T02:48:00.445Z,72.70
2023-04-20T02:49:00.689Z,72.70
2023-04-20T02:50:00.399Z,72.70
2023-04-20T02:51:00.378Z,72.87
2023-04-20T02:52:00.333Z,72.87
2023-04-20T02:53:00.597Z,72.87
2023-04-20T02:54:00.326Z,72.87
2023-04-20T02:55:00.340Z,72.87
2023-04-20T02:56:00.348Z,73.07
2023-04-20T02:57:00.346Z,73.07
2023-04-20T02:58:00.449Z,73.07
2023-04-20T02:59:00.882Z,73.07
2023-04-20T03:00:00.346Z,73.07
2023-04-20T03:01:00.975Z,73.25
2023-04-20T03:02:00.455Z,73.25
2023-04-20T03:03:00.445Z,73.25
2023-04-20T03:04:00.525Z,73.25
2023-04-20T03:05:00.347Z,73.25
2023-04-20T03:06:00.356Z,73.41
2023-04-20T03:07:00.379Z,73.41
2023-04-20T03:08:00.334Z,73.41
2023-04-20T03:09:00.345Z,73.41
2023-04-20T03:10:00.378Z,73.41
2023-04-20T03:11:00.356Z,73.47
2023-04-20T03:12:00.389Z,73.47
2023-04-20T03:13:00.375Z,73.47
2023-04-20T03:14:00.341Z,73.47
2023-04-20T03:15:00.373Z,73.47
2023-04-20T03:16:00.516Z,73.96
2023-04-20T03:17:00.335Z,73.96
2023-04-20T03:18:00.417Z,73.96
2023-04-20T03:19:00.399Z,73.96
2023-04-20T03:20:00.339Z,73.96
2023-04-20T03:21:00.355Z,74.45
2023-04-20T03:22:00.342Z,74.45
2023-04-20T03:23:00.365Z,74.45
2023-04-20T03:24:00.412Z,74.45
2023-04-20T03:25:00.399Z,74.45
2023-04-20T03:26:00.346Z,74.63
2023-04-20T03:27:00.387Z,74.63
2023-04-20T03:28:00.358Z,74.63
2023-04-20T03:29:00.348Z,74.63
2023-04-20T03:30:00.392Z,74.63
2023-04-20T03:31:00.345Z,74.26
2023-04-20T03:32:00.403Z,74.26
2023-04-20T03:33:00.366Z,74.26
2023-04-20T03:34:00.341Z,74.26
2023-04-20T03:35:00.400Z,74.26
2023-04-20T03:36:00.327Z,74.48
2023-04-20T03:37:00.333Z,74.48
2023-04-20T03:38:00.357Z,74.48
2023-04-20T03:39:00.359Z,74.48
2023-04-20T03:40:00.392Z,74.48
2023-04-20T03:41:00.656Z,74.64
2023-04-20T03:42:00.332Z,74.64
2023-04-20T03:43:00.343Z,74.64
2023-04-20T03:44:00.392Z,74.64
2023-04-20T03:45:00.336Z,74.64
2023-04-20T03:46:00.428Z,74.80
2023-04-20T03:47:00.352Z,74.80
2023-04-20T03:48:00.388Z,74.80
2023-04-20T03:49:00.397Z,74.80
2023-04-20T03:50:00.376Z,74.80
2023-04-20T03:51:00.349Z,74.67
2023-04-20T03:52:00.321Z,74.67
2023-04-20T03:53:00.386Z,74.67
2023-04-20T03:54:00.331Z,74.67
2023-04-20T03:55:00.349Z,74.67
2023-04-20T03:56:00.361Z,74.52
2023-04-20T03:57:00.384Z,74.52
2023-04-20T03:58:00.378Z,74.52
2023-04-20T03:59:00.347Z,74.52
2023-04-20T04:00:00.577Z,74.52
2023-04-20T04:01:01.018Z,74.69
2023-04-20T04:02:01.220Z,74.69
2023-04-20T04:03:00.530Z,74.69
2023-04-20T04:04:00.849Z,74.69
2023-04-20T04:05:00.546Z,74.69
2023-04-20T04:06:00.590Z,74.50
2023-04-20T04:07:00.322Z,74.50
2023-04-20T04:08:00.358Z,74.50
2023-04-20T04:09:00.435Z,74.50
2023-04-20T04:10:00.339Z,74.50
2023-04-20T04:11:00.379Z,74.45
2023-04-20T04:12:00.340Z,74.45
2023-04-20T04:13:00.333Z,74.45
2023-04-20T04:14:00.342Z,74.45
2023-04-20T04:15:00.663Z,74.45
2023-04-20T04:16:00.337Z,74.44
2023-04-20T04:17:00.402Z,74.44
2023-04-20T04:18:00.387Z,74.44
2023-04-20T04:19:00.366Z,74.44
2023-04-20T04:20:00.343Z,74.44
2023-04-20T04:21:00.341Z,74.39
2023-04-20T04:22:00.364Z,74.39
2023-04-20T04:23:00.376Z,74.39
2023-04-20T04:24:00.324Z,74.39
2023-04-20T04:25:00.363Z,74.39
2023-04-20T04:26:00.928Z,74.24
2023-04-20T04:27:00.768Z,74.24
2023-04-20T04:28:00.388Z,74.24
2023-04-20T04:29:00.336Z,74.24
2023-04-20T04:30:00.690Z,74.24
2023-04-20T04:31:00.350Z,74.15
2023-04-20T04:32:02.197Z,74.15
2023-04-20T04:33:00.373Z,74.15
2023-04-20T04:34:00.354Z,74.15
2023-04-20T04:35:00.337Z,74.15
2023-04-20T04:36:00.459Z,74.04
2023-04-20T04:37:00.336Z,74.04
2023-04-20T04:38:00.344Z,74.04
2023-04-20T04:39:00.392Z,74.04
2023-04-20T04:40:00.342Z,74.04
2023-04-20T04:41:00.360Z,74.01
2023-04-20T04:42:00.827Z,74.01
2023-04-20T04:43:00.362Z,74.01
2023-04-20T04:44:00.349Z,74.01
2023-04-20T04:45:00.881Z,74.01
2023-04-20T04:46:05.013Z,74.01
2023-04-20T04:47:01.926Z,74.01
2023-04-20T04:48:00.409Z,74.01
2023-04-20T04:49:00.341Z,74.01
2023-04-20T04:50:01.503Z,74.01
2023-04-20T04:51:00.604Z,74.07
2023-04-20T04:52:00.490Z,74.07
2023-04-20T04:53:00.343Z,74.07
2023-04-20T04:54:00.373Z,74.07
2023-04-20T04:55:00.636Z,74.07
2023-04-20T04:56:00.421Z,74.13
2023-04-20T04:57:00.354Z,74.13
2023-04-20T04:58:00.337Z,74.13
2023-04-20T04:59:00.345Z,74.13
2023-04-20T05:00:00.525Z,74.13
2023-04-20T05:01:00.374Z,74.06
2023-04-20T05:02:00.393Z,74.06
2023-04-20T05:03:00.599Z,74.06
2023-04-20T05:04:00.451Z,74.06
2023-04-20T05:05:00.392Z,74.06
2023-04-20T05:06:00.334Z,74.11
2023-04-20T05:07:00.359Z,74.11
2023-04-20T05:08:00.340Z,74.11
2023-04-20T05:09:00.334Z,74.11
2023-04-20T05:10:00.345Z,74.11
2023-04-20T05:11:00.340Z,74.12
2023-04-20T05:12:00.439Z,74.12
2023-04-20T05:13:00.463Z,74.12
2023-04-20T05:14:00.353Z,74.12
2023-04-20T05:15:00.476Z,74.12
2023-04-20T05:16:00.352Z,74.23
2023-04-20T05:17:00.339Z,74.23
2023-04-20T05:18:00.380Z,74.23
2023-04-20T05:19:00.377Z,74.23
2023-04-20T05:20:00.343Z,74.23
2023-04-20T05:21:00.679Z,74.42
2023-04-20T05:22:00.361Z,74.42
2023-04-20T05:23:00.367Z,74.42
2023-04-20T05:24:00.396Z,74.42
2023-04-20T05:25:00.589Z,74.42
2023-04-20T05:26:00.376Z,74.47
2023-04-20T05:27:00.350Z,74.47
2023-04-20T05:28:00.351Z,74.47
2023-04-20T05:29:00.394Z,74.47
2023-04-20T05:30:09.505Z,74.47
2023-04-20T05:31:00.359Z,74.75
2023-04-20T05:32:00.414Z,74.75
2023-04-20T05:33:00.373Z,74.75
2023-04-20T05:34:00.347Z,74.75
2023-04-20T05:35:00.497Z,74.75
2023-04-20T05:36:00.400Z,75.09
2023-04-20T05:37:02.853Z,75.09
2023-04-20T05:38:00.339Z,75.09
2023-04-20T05:39:00.352Z,75.09
2023-04-20T05:40:00.361Z,75.09
2023-04-20T05:41:00.368Z,75.20
2023-04-20T05:42:00.354Z,75.20
2023-04-20T05:43:00.391Z,75.20
2023-04-20T05:44:00.347Z,75.20
2023-04-20T05:45:00.358Z,75.20
2023-04-20T05:46:00.396Z,75.23
2023-04-20T05:47:00.340Z,75.23
2023-04-20T05:48:00.420Z,75.23
2023-04-20T05:49:00.428Z,75.23
2023-04-20T05:50:00.338Z,75.23
2023-04-20T05:51:00.342Z,75.30
2023-04-20T05:52:00.463Z,75.30
2023-04-20T05:53:00.355Z,75.30
2023-04-20T05:54:00.349Z,75.30
2023-04-20T05:55:00.401Z,75.30
2023-04-20T05:56:00.379Z,75.42
2023-04-20T05:57:00.390Z,75.42
2023-04-20T05:58:00.349Z,75.42
2023-04-20T05:59:00.667Z,75.42
2023-04-20T06:00:00.356Z,75.42
2023-04-20T06:01:00.342Z,75.44
2023-04-20T06:02:00.434Z,75.44
2023-04-20T06:03:00.501Z,75.44
2023-04-20T06:04:00.674Z,75.44
2023-04-20T06:05:00.556Z,75.44
2023-04-20T06:06:00.365Z,75.77
2023-04-20T06:07:00.335Z,75.77
2023-04-20T06:08:00.608Z,75.77
2023-04-20T06:09:00.360Z,75.77
2023-04-20T06:10:00.398Z,75.77
2023-04-20T06:11:00.352Z,74.01
2023-04-20T06:12:00.336Z,74.01
2023-04-20T06:13:00.346Z,74.01
2023-04-20T06:14:00.382Z,74.01
2023-04-20T06:15:00.672Z,74.01
2023-04-20T06:16:00.415Z,71.50
2023-04-20T06:17:00.354Z,71.50
2023-04-20T06:18:00.445Z,71.50
2023-04-20T06:19:00.417Z,71.50
2023-04-20T06:20:00.360Z,71.50
2023-04-20T06:21:00.374Z,68.80
2023-04-20T06:22:04.493Z,68.80
2023-04-20T06:23:00.355Z,68.80
2023-04-20T06:24:00.340Z,68.80
2023-04-20T06:25:00.417Z,68.80
2023-04-20T06:26:00.336Z,65.29
2023-04-20T06:27:00.673Z,65.29
2023-04-20T06:28:00.354Z,65.29
2023-04-20T06:29:00.358Z,65.29
2023-04-20T06:30:00.492Z,65.29
2023-04-20T06:31:00.571Z,63.04
2023-04-20T06:32:00.345Z,63.04
2023-04-20T06:33:00.777Z,63.04
2023-04-20T06:34:00.335Z,63.04
2023-04-20T06:35:00.367Z,63.04
2023-04-20T06:36:00.358Z,61.65
2023-04-20T06:37:00.344Z,61.65
2023-04-20T06:38:00.340Z,61.65
2023-04-20T06:39:00.355Z,61.65
2023-04-20T06:40:00.363Z,61.65
2023-04-20T06:41:00.387Z,63.30
2023-04-20T06:42:00.416Z,63.30
2023-04-20T06:43:00.355Z,63.30
2023-04-20T06:44:00.332Z,63.30
2023-04-20T06:45:00.374Z,63.30
2023-04-20T06:46:00.346Z,64.45
2023-04-20T06:47:00.427Z,64.45
2023-04-20T06:48:00.391Z,64.45
2023-04-20T06:49:00.641Z,64.45
2023-04-20T06:50:01.172Z,64.45
2023-04-20T06:51:00.374Z,65.57
2023-04-20T06:52:00.349Z,65.57
2023-04-20T06:53:01.534Z,65.57
2023-04-20T06:54:00.352Z,65.57
2023-04-20T06:55:00.419Z,65.57
2023-04-20T06:56:00.392Z,66.71
2023-04-20T06:57:00.344Z,66.71
2023-04-20T06:58:00.425Z,66.71
2023-04-20T06:59:00.352Z,66.71
2023-04-20T07:00:00.440Z,66.71
2023-04-20T07:01:00.846Z,67.14
2023-04-20T07:02:00.591Z,67.14
2023-04-20T07:03:00.460Z,67.14
2023-04-20T07:04:00.699Z,67.14
2023-04-20T07:05:00.636Z,67.14
2023-04-20T07:06:00.332Z,67.66
2023-04-20T07:07:00.333Z,67.66
2023-04-20T07:08:00.346Z,67.66
2023-04-20T07:09:00.381Z,67.66
2023-04-20T07:10:00.373Z,67.66
2023-04-20T07:11:00.332Z,67.88
2023-04-20T07:12:00.438Z,67.88
2023-04-20T07:13:00.385Z,67.88
2023-04-20T07:14:00.332Z,67.88
2023-04-20T07:15:00.863Z,67.88
2023-04-20T07:16:00.420Z,67.88
2023-04-20T07:17:00.353Z,67.88
2023-04-20T07:18:00.434Z,67.88
2023-04-20T07:19:00.401Z,67.88
2023-04-20T07:20:00.757Z,67.88
2023-04-20T07:21:00.388Z,67.59
2023-04-20T07:22:00.348Z,67.59
2023-04-20T07:23:00.365Z,67.59
2023-04-20T07:24:00.890Z,67.59
2023-04-20T07:25:00.690Z,67.59
2023-04-20T07:26:00.390Z,67.42
2023-04-20T07:27:00.332Z,67.42
2023-04-20T07:28:00.370Z,67.42
2023-04-20T07:29:00.459Z,67.42
2023-04-20T07:30:00.360Z,67.42
2023-04-20T07:31:00.393Z,66.55
2023-04-20T07:32:00.441Z,66.55
2023-04-20T07:33:00.391Z,66.55
2023-04-20T07:34:00.338Z,66.55
2023-04-20T07:35:00.513Z,66.55
2023-04-20T07:36:00.340Z,66.41
2023-04-20T07:37:00.415Z,66.41
2023-04-20T07:38:00.332Z,66.41
2023-04-20T07:39:00.330Z,66.41
2023-04-20T07:40:00.594Z,66.41
2023-04-20T07:41:00.588Z,65.55
2023-04-20T07:42:01.453Z,65.55
2023-04-20T07:43:00.337Z,65.55
2023-04-20T07:44:00.363Z,65.55
2023-04-20T07:45:00.366Z,65.55
2023-04-20T07:46:00.454Z,65.17
2023-04-20T07:47:02.916Z,65.17
2023-04-20T07:48:00.391Z,65.17
2023-04-20T07:49:00.388Z,65.17
2023-04-20T07:50:00.421Z,65.17
2023-04-20T07:51:00.349Z,63.81
2023-04-20T07:52:12.930Z,63.81
2023-04-20T07:53:00.365Z,63.81
2023-04-20T07:54:00.349Z,63.81
2023-04-20T07:55:00.400Z,63.81
2023-04-20T07:56:00.374Z,62.98
2023-04-20T07:57:00.681Z,62.98
2023-04-20T07:58:00.353Z,62.98
2023-04-20T07:59:00.372Z,62.98
2023-04-20T08:00:00.345Z,62.98
2023-04-20T08:01:00.345Z,62.48
2023-04-20T08:02:00.800Z,62.48
2023-04-20T08:03:00.641Z,62.48
2023-04-20T08:04:00.530Z,62.48
2023-04-20T08:05:00.971Z,62.48
2023-04-20T08:06:00.457Z,60.90
2023-04-20T08:07:00.342Z,60.90
2023-04-20T08:08:00.405Z,60.90
2023-04-20T08:09:00.379Z,60.90
2023-04-20T08:10:00.376Z,60.90
2023-04-20T08:11:00.360Z,59.18
2023-04-20T08:12:00.372Z,59.18
2023-04-20T08:13:00.634Z,59.18
2023-04-20T08:14:00.459Z,59.18
2023-04-20T08:15:00.625Z,59.18
2023-04-20T08:16:00.643Z,57.94
2023-04-20T08:17:00.353Z,57.94
2023-04-20T08:18:00.481Z,57.94
2023-04-20T08:19:00.377Z,57.94
2023-04-20T08:20:00.324Z,57.94
2023-04-20T08:21:00.361Z,56.64
2023-04-20T08:22:01.423Z,56.64
2023-04-20T08:23:00.389Z,56.64
2023-04-20T08:24:00.385Z,56.64
2023-04-20T08:25:00.366Z,56.64
2023-04-20T08:26:00.348Z,56.17
2023-04-20T08:27:00.327Z,56.17
2023-04-20T08:28:00.336Z,56.17
2023-04-20T08:29:01.138Z,56.17
2023-04-20T08:30:01.473Z,56.17
2023-04-20T08:31:00.710Z,54.15
2023-04-20T08:32:00.484Z,54.15
2023-04-20T08:33:00.401Z,54.15
2023-04-20T08:34:00.410Z,54.15
2023-04-20T08:35:00.344Z,54.15
2023-04-20T08:36:00.416Z,52.39
2023-04-20T08:37:00.350Z,52.39
2023-04-20T08:38:00.423Z,52.39
2023-04-20T08:39:10.288Z,52.39
2023-04-20T08:40:00.345Z,52.39
2023-04-20T08:41:00.703Z,51.70
2023-04-20T08:42:00.401Z,51.70
2023-04-20T08:43:00.380Z,51.70
2023-04-20T08:44:00.372Z,51.70
2023-04-20T08:45:00.347Z,51.70
2023-04-20T08:46:03.028Z,51.65
2023-04-20T08:47:00.420Z,51.65
2023-04-20T08:48:04.985Z,51.65
2023-04-20T08:49:00.647Z,51.65
2023-04-20T08:50:02.082Z,51.65
2023-04-20T08:51:00.726Z,50.10
2023-04-20T08:52:00.358Z,50.10
2023-04-20T08:53:00.364Z,50.10
2023-04-20T08:54:03.733Z,50.10
2023-04-20T08:55:00.358Z,50.10
2023-04-20T08:56:00.393Z,49.82
2023-04-20T08:57:00.375Z,49.82
2023-04-20T08:58:00.351Z,49.82
2023-04-20T08:59:01.164Z,49.82
2023-04-20T09:00:01.309Z,49.82
2023-04-20T09:01:00.356Z,49.24
2023-04-20T09:02:08.488Z,49.24
2023-04-20T09:03:00.554Z,49.24
2023-04-20T09:04:00.752Z,49.24
2023-04-20T09:05:03.194Z,49.24
2023-04-20T09:06:00.392Z,49.51
2023-04-20T09:07:00.359Z,49.51
2023-04-20T09:08:00.456Z,49.51
2023-04-20T09:09:00.341Z,49.51
2023-04-20T09:10:00.418Z,49.51
2023-04-20T09:11:00.382Z,48.33
2023-04-20T09:12:02.694Z,48.33
2023-04-20T09:13:00.358Z,48.33
2023-04-20T09:14:02.022Z,48.33
2023-04-20T09:15:00.363Z,48.33
2023-04-20T09:16:10.317Z,47.87
2023-04-20T09:17:00.366Z,47.87
2023-04-20T09:18:09.928Z,47.87
2023-04-20T09:19:00.363Z,47.87
2023-04-20T09:20:00.727Z,47.87
2023-04-20T09:21:08.569Z,48.69
2023-04-20T09:22:00.361Z,48.69
2023-04-20T09:23:10.272Z,48.69
2023-04-20T09:24:01.655Z,48.69
2023-04-20T09:25:10.258Z,48.69
2023-04-20T09:26:00.405Z,47.35
2023-04-20T09:27:01.533Z,47.35
2023-04-20T09:28:00.672Z,47.35
2023-04-20T09:29:01.270Z,47.35
2023-04-20T09:30:00.834Z,47.35
2023-04-20T09:31:00.333Z,46.56
2023-04-20T09:32:00.775Z,46.56
2023-04-20T09:33:01.108Z,46.56
2023-04-20T09:34:01.541Z,46.56
2023-04-20T09:35:00.441Z,46.56
2023-04-20T09:36:02.379Z,46.64
2023-04-20T09:37:00.341Z,46.64
2023-04-20T09:38:00.446Z,46.64
2023-04-20T09:39:01.463Z,46.64
2023-04-20T09:40:02.384Z,46.64
2023-04-20T09:41:00.450Z,45.66
2023-04-20T09:42:02.943Z,45.66
2023-04-20T09:43:02.897Z,45.66
2023-04-20T09:44:00.894Z,45.66
2023-04-20T09:45:00.736Z,45.66
2023-04-20T09:46:01.964Z,44.83
2023-04-20T09:47:01.939Z,44.83
2023-04-20T09:48:03.417Z,44.83
2023-04-20T09:49:02.015Z,44.83
2023-04-20T09:50:10.192Z,44.83
2023-04-20T09:51:01.147Z,44.56
2023-04-20T09:52:01.384Z,44.56
2023-04-20T09:53:01.066Z,44.56
2023-04-20T09:54:02.081Z,44.56
2023-04-20T09:55:00.917Z,44.56
2023-04-20T09:56:01.157Z,44.54
2023-04-20T09:57:00.349Z,44.54
2023-04-20T09:58:01.780Z,44.54
2023-04-20T09:59:01.132Z,44.54
2023-04-20T10:00:01.076Z,44.54
2023-04-20T10:01:00.945Z,43.21
2023-04-20T10:02:00.551Z,43.21
2023-04-20T10:03:00.621Z,43.21
2023-04-20T10:04:01.698Z,43.21
2023-04-20T10:05:00.374Z,43.21
2023-04-20T10:06:00.347Z,41.64
2023-04-20T10:07:00.342Z,41.64
2023-04-20T10:08:00.417Z,41.64
2023-04-20T10:09:01.692Z,41.64
2023-04-20T10:10:04.429Z,41.64
2023-04-20T10:11:00.349Z,40.99
2023-04-20T10:12:08.455Z,40.99
2023-04-20T10:13:00.361Z,40.99
2023-04-20T10:14:10.271Z,40.99
2023-04-20T10:15:00.349Z,40.99
2023-04-20T10:16:00.477Z,41.15
2023-04-20T10:17:02.679Z,41.15
2023-04-20T10:18:00.501Z,41.15
2023-04-20T10:19:01.316Z,41.15
2023-04-20T10:20:00.385Z,41.15
2023-04-20T10:21:05.219Z,40.84
2023-04-20T10:22:00.334Z,40.84
2023-04-20T10:23:08.927Z,40.84
2023-04-20T10:24:00.352Z,40.84
2023-04-20T10:25:00.891Z,40.84
2023-04-20T10:26:00.492Z,42.46
2023-04-20T10:27:00.392Z,42.46
2023-04-20T10:28:01.945Z,42.46
2023-04-20T10:29:00.356Z,42.46
2023-04-20T10:30:08.650Z,42.46
2023-04-20T10:31:00.375Z,42.68
2023-04-20T10:32:00.468Z,42.68
2023-04-20T10:33:04.521Z,42.68
2023-04-20T10:34:00.336Z,42.68
2023-04-20T10:35:01.269Z,42.68
2023-04-20T10:36:00.341Z,40.68
2023-04-20T10:37:07.830Z,40.68
2023-04-20T10:38:00.470Z,40.68
2023-04-20T10:39:00.349Z,40.68
2023-04-20T10:40:00.965Z,40.68
2023-04-20T10:41:10.272Z,41.52
2023-04-20T10:42:00.355Z,41.52
2023-04-20T10:43:00.379Z,41.52
2023-04-20T10:44:07.935Z,41.52
2023-04-20T10:45:00.351Z,41.52
2023-04-20T10:46:00.504Z,40.39
2023-04-20T10:47:00.349Z,40.39
2023-04-20T10:48:05.865Z,40.39
2023-04-20T10:49:00.724Z,40.39
2023-04-20T10:50:10.256Z,40.39
2023-04-20T10:51:07.997Z,40.48
2023-04-20T10:52:00.422Z,40.48
2023-04-20T10:53:00.355Z,40.48
2023-04-20T10:54:01.532Z,40.48
2023-04-20T10:55:00.737Z,40.48
2023-04-20T10:56:00.381Z,40.39
2023-04-20T10:57:00.346Z,40.39
2023-04-20T10:58:00.338Z,40.39
2023-04-20T10:59:08.854Z,40.39
2023-04-20T11:00:10.263Z,40.39
2023-04-20T11:01:01.486Z,38.55
2023-04-20T11:02:00.488Z,38.55
2023-04-20T11:03:00.475Z,38.55
2023-04-20T11:04:00.408Z,38.55
2023-04-20T11:05:08.930Z,38.55
2023-04-20T11:06:00.410Z,37.39
2023-04-20T11:07:04.286Z,37.39
2023-04-20T11:08:00.336Z,37.39
2023-04-20T11:09:00.466Z,37.39
2023-04-20T11:10:00.381Z,37.39
2023-04-20T11:11:00.379Z,38.75
2023-04-20T11:12:01.346Z,38.75
2023-04-20T11:13:00.347Z,38.75
2023-04-20T11:14:08.566Z,38.75
2023-04-20T11:15:00.355Z,38.75
2023-04-20T11:16:08.461Z,38.34
2023-04-20T11:17:00.735Z,38.34
2023-04-20T11:18:08.531Z,38.34
2023-04-20T11:19:01.026Z,38.34
2023-04-20T11:20:05.035Z,38.34
2023-04-20T11:21:00.360Z,37.55
2023-04-20T11:22:01.859Z,37.55
2023-04-20T11:23:00.628Z,37.55
2023-04-20T11:24:00.442Z,37.55
2023-04-20T11:25:02.055Z,37.55
2023-04-20T11:26:00.348Z,35.77
2023-04-20T11:27:01.057Z,35.77
2023-04-20T11:28:04.083Z,35.77
2023-04-20T11:29:00.346Z,35.77
2023-04-20T11:30:00.679Z,35.77
2023-04-20T11:31:00.400Z,36.15
2023-04-20T11:32:02.742Z,36.15
2023-04-20T11:33:00.412Z,36.15
2023-04-20T11:34:00.394Z,36.15
2023-04-20T11:35:06.568Z,36.15
2023-04-20T11:36:00.385Z,36.06
2023-04-20T11:37:04.132Z,36.06
2023-04-20T11:38:00.346Z,36.06
2023-04-20T11:39:10.088Z,36.06
2023-04-20T11:40:02.528Z,36.06
2023-04-20T11:41:00.377Z,35.51
2023-04-20T11:42:00.459Z,35.51
2023-04-20T11:43:00.375Z,35.51
2023-04-20T11:44:00.362Z,35.51
2023-04-20T11:45:00.419Z,35.51
2023-04-20T11:46:00.404Z,35.48
2023-04-20T11:47:00.347Z,35.48
2023-04-20T11:48:00.389Z,35.48
2023-04-20T11:49:00.380Z,35.48
2023-04-20T11:50:00.351Z,35.48
2023-04-20T11:51:00.387Z,34.71
2023-04-20T11:52:00.433Z,34.71
2023-04-20T11:53:00.356Z,34.71
2023-04-20T11:54:00.366Z,34.71
2023-04-20T11:55:00.371Z,34.71
2023-04-20T11:56:00.360Z,33.54
2023-04-20T11:57:00.362Z,33.54
2023-04-20T11:58:00.349Z,33.54
2023-04-20T11:59:00.333Z,33.54
2023-04-20T12:00:00.393Z,33.54
2023-04-20T12:01:00.334Z,33.25
2023-04-20T12:02:00.417Z,33.25
2023-04-20T12:03:00.563Z,33.25
2023-04-20T12:04:00.634Z,33.25
2023-04-20T12:05:00.503Z,33.25
2023-04-20T12:06:00.358Z,32.21
2023-04-20T12:07:00.361Z,32.21
2023-04-20T12:08:00.363Z,32.21
2023-04-20T12:09:00.390Z,32.21
2023-04-20T12:10:00.370Z,32.21
2023-04-20T12:11:00.358Z,32.20
2023-04-20T12:12:00.666Z,32.20
2023-04-20T12:13:00.351Z,32.20
2023-04-20T12:14:00.408Z,32.20
2023-04-20T12:15:00.335Z,32.20
2023-04-20T12:16:00.397Z,33.14
2023-04-20T12:17:00.611Z,33.14
2023-04-20T12:18:00.465Z,33.14
2023-04-20T12:19:00.339Z,33.14
2023-04-20T12:20:00.370Z,33.14
2023-04-20T12:21:00.337Z,32.97
2023-04-20T12:22:00.348Z,32.97
2023-04-20T12:23:00.388Z,32.97
2023-04-20T12:24:00.363Z,32.97
2023-04-20T12:25:00.487Z,32.97
2023-04-20T12:26:00.351Z,32.12
2023-04-20T12:27:00.344Z,32.12
2023-04-20T12:28:00.372Z,32.12
2023-04-20T12:29:00.678Z,32.12
2023-04-20T12:30:00.371Z,32.12
2023-04-20T12:31:00.496Z,32.58
2023-04-20T12:32:00.523Z,32.58
2023-04-20T12:33:01.708Z,32.58
2023-04-20T12:34:00.354Z,32.58
2023-04-20T12:35:00.383Z,32.58
2023-04-20T12:36:00.389Z,32.29
2023-04-20T12:37:00.341Z,32.29
2023-04-20T12:38:00.359Z,32.29
2023-04-20T12:39:00.339Z,32.29
2023-04-20T12:40:00.676Z,32.29
2023-04-20T12:41:00.580Z,32.28
2023-04-20T12:42:00.351Z,32.28
2023-04-20T12:43:00.357Z,32.28
2023-04-20T12:44:02.645Z,32.28
2023-04-20T12:45:00.356Z,32.28
2023-04-20T12:46:00.472Z,32.75
2023-04-20T12:47:00.471Z,32.75
2023-04-20T12:48:00.869Z,32.75
2023-04-20T12:49:00.375Z,32.75
2023-04-20T12:50:00.400Z,32.75
2023-04-20T12:51:00.383Z,32.78
2023-04-20T12:52:00.371Z,32.78